Dati Storici

Data ora Umidita' aria (%) Temperatura aria (°C) Rad globale (W/m²) Gonioanemometro (°) Tacoanemometro (m/s) Pioggia (mm)
05-06-2020 11:30 76.3 % 20.524 -77.279 1.534 0 0
05-06-2020 11:20 75 % 19.77 -74.588 3.077 0 0
05-06-2020 11:10 76.2 % 20.035 -61.082 1.395 0 0
05-06-2020 11:00 74.3 % 19.833 -79.205 3.752 0 0
05-06-2020 10:50 76.9 % 21.119 -76.24 2.285 0 0
05-06-2020 10:40 81.4 % 20.183 -77.074 4 0 0
05-06-2020 10:30 82.9 % 19.318 -80.237 4.322 0 0
05-06-2020 10:20 79.3 % 18.997 -77.488 3.901 0 0
05-06-2020 10:10 73.2 % 20.222 -57.817 2.627 0 0
05-06-2020 10:00 75.5 % 20.437 -72.091 1.973 0 0
05-06-2020 09:50 75.5 % 20.667 -66.049 1.488 0 0
05-06-2020 09:40 78.1 % 20.124 -67.629 0.385 0 0
05-06-2020 09:30 83.9 % 19.579 -79.337 0.273 0 0
05-06-2020 09:20 84.6 % 19.245 -79.596 1.492 0 0
05-06-2020 09:10 86.3 % 19.089 -71.52 0.805 0 0
05-06-2020 09:00 84.6 % 18.494 -67.321 2.469 0 0
05-06-2020 08:50 86.5 % 18.598 -59.207 1.787 0 0
05-06-2020 08:40 85.8 % 18.334 -73.617 2.139 0 0
05-06-2020 08:30 89.8 % 19.115 -82.552 0.365 0 0
05-06-2020 08:20 87.2 % 18.354 -69.454 1.959 0 0

I dati sono presentati in modo automatico a scopo informativo. In seguito a verifica i dati possono subire modifiche o essere invalidati e non riportati negli archivi definitivi.